createdAt,value
2018-07-27T00:02:20.188Z,100884.64
2018-07-27T00:04:48.485Z,100876.93
2018-07-27T00:07:16.776Z,100882.34
2018-07-27T00:09:44.976Z,100880.39
2018-07-27T00:12:13.205Z,100875.14
2018-07-27T00:14:41.424Z,100872.88
2018-07-27T00:17:09.648Z,100874.46
2018-07-27T00:19:37.869Z,100874.37
2018-07-27T00:22:06.144Z,100878.05
2018-07-27T00:24:34.344Z,100872.56
2018-07-27T00:27:02.557Z,100864.31
2018-07-27T00:29:30.871Z,100869.20
2018-07-27T00:31:59.082Z,100873.17
2018-07-27T00:34:27.280Z,100867.98
2018-07-27T00:36:55.580Z,100879.78
2018-07-27T00:39:23.788Z,100872.92
2018-07-27T00:41:51.996Z,100872.35
2018-07-27T00:44:20.205Z,100862.71
2018-07-27T00:46:48.420Z,100869.34
2018-07-27T00:49:16.720Z,100869.86
2018-07-27T00:51:44.916Z,100867.69
2018-07-27T00:54:13.152Z,100867.69
2018-07-27T00:56:41.357Z,100866.64
2018-07-27T00:59:09.620Z,100864.15
2018-07-27T01:01:37.895Z,100867.30
2018-07-27T01:04:06.120Z,100865.25
2018-07-27T01:06:34.352Z,100866.83
2018-07-27T01:09:02.574Z,100862.62
2018-07-27T01:11:30.785Z,100860.36
2018-07-27T01:13:58.996Z,100854.70
2018-07-27T01:16:27.206Z,100862.06
2018-07-27T01:18:55.488Z,100862.72
2018-07-27T01:21:23.733Z,100863.99
2018-07-27T01:23:51.932Z,100860.16
2018-07-27T01:26:20.145Z,100858.50
2018-07-27T01:28:48.355Z,100859.55
2018-07-27T01:31:16.589Z,100848.24
2018-07-27T01:33:44.784Z,100860.89
2018-07-27T01:36:12.980Z,100865.17
2018-07-27T01:38:41.192Z,100852.48
2018-07-27T01:41:09.412Z,100850.08
2018-07-27T01:43:37.636Z,100851.13
2018-07-27T01:46:05.944Z,100853.83
2018-07-27T01:48:34.155Z,100848.64
2018-07-27T01:51:02.441Z,100853.22
2018-07-27T01:53:30.596Z,100848.24
2018-07-27T01:55:58.851Z,100841.95
2018-07-27T01:58:27.065Z,100838.25
2018-07-27T02:00:55.304Z,100844.79
2018-07-27T02:03:23.511Z,100837.55
2018-07-27T02:05:51.766Z,100841.69
2018-07-27T02:08:19.960Z,100848.67
2018-07-27T02:10:48.184Z,100840.37
2018-07-27T02:13:16.392Z,100838.45
2018-07-27T02:15:44.600Z,100842.41
2018-07-27T02:18:12.821Z,100839.31
2018-07-27T02:20:41.029Z,100842.45
2018-07-27T02:23:09.244Z,100841.31
2018-07-27T02:25:37.456Z,100842.58
2018-07-27T02:28:05.725Z,100836.59
2018-07-27T02:30:33.949Z,100830.79
2018-07-27T02:33:02.172Z,100830.48
2018-07-27T02:35:30.376Z,100828.73
2018-07-27T02:37:58.577Z,100830.39
2018-07-27T02:40:26.797Z,100833.63
2018-07-27T02:42:55.028Z,100826.56
2018-07-27T02:45:23.277Z,100826.47
2018-07-27T02:47:51.488Z,100830.00
2018-07-27T02:50:20.600Z,100829.17
2018-07-27T02:52:48.812Z,100821.28
2018-07-27T02:55:17.056Z,100824.81
2018-07-27T02:57:45.468Z,100818.30
2018-07-27T03:00:13.704Z,100823.83
2018-07-27T03:02:41.920Z,100819.34
2018-07-27T03:05:10.149Z,100827.36
2018-07-27T03:07:38.365Z,100821.34
2018-07-27T03:10:06.917Z,100817.20
2018-07-27T03:12:35.184Z,100823.89
2018-07-27T03:15:03.496Z,100820.58
2018-07-27T03:17:31.700Z,100824.53
2018-07-27T03:19:59.921Z,100813.97
2018-07-27T03:22:28.136Z,100827.36
2018-07-27T03:24:56.332Z,100816.52
2018-07-27T03:27:24.618Z,100825.75
2018-07-27T03:29:52.817Z,100820.27
2018-07-27T03:32:21.040Z,100822.86
2018-07-27T03:34:49.300Z,100828.17
2018-07-27T03:37:17.508Z,100824.86
2018-07-27T03:39:45.726Z,100819.67
2018-07-27T03:42:13.957Z,100818.56
2018-07-27T03:44:42.172Z,100816.91
2018-07-27T03:47:10.436Z,100826.26
2018-07-27T03:49:38.660Z,100819.41
2018-07-27T03:52:06.948Z,100820.57
2018-07-27T03:54:35.155Z,100821.61
2018-07-27T03:57:03.408Z,100825.88
2018-07-27T03:59:31.633Z,100817.19
2018-07-27T04:01:59.876Z,100821.45
2018-07-27T04:04:28.098Z,100819.48
2018-07-27T04:06:56.432Z,100820.83
2018-07-27T04:09:24.636Z,100822.48
2018-07-27T04:11:52.953Z,100818.75
2018-07-27T04:14:21.177Z,100824.36
2018-07-27T04:16:49.404Z,100825.71
2018-07-27T04:19:17.628Z,100826.12
2018-07-27T04:21:45.840Z,100826.12
2018-07-27T04:24:14.080Z,100834.49
2018-07-27T04:26:42.313Z,100828.27
2018-07-27T04:29:10.537Z,100833.66
2018-07-27T04:31:38.733Z,100828.15
2018-07-27T04:34:06.981Z,100833.03
2018-07-27T04:36:35.236Z,100828.15
2018-07-27T04:39:04.229Z,100828.45
2018-07-27T04:41:32.464Z,100828.45
2018-07-27T04:44:00.667Z,100831.98
2018-07-27T04:46:28.877Z,100833.86
2018-07-27T04:48:57.085Z,100837.08
2018-07-27T04:51:25.325Z,100830.84
2018-07-27T04:53:53.550Z,100834.06
2018-07-27T04:56:21.773Z,100831.06
2018-07-27T04:58:50.013Z,100831.06
2018-07-27T05:01:18.236Z,100831.06
2018-07-27T05:03:46.465Z,100831.58
2018-07-27T05:06:14.684Z,100838.02
2018-07-27T05:08:48.344Z,100837.19
2018-07-27T05:11:16.610Z,100838.86
2018-07-27T05:13:44.836Z,100842.17
2018-07-27T05:16:13.196Z,100838.64
2018-07-27T05:18:41.413Z,100834.90
2018-07-27T05:21:09.620Z,100843.62
2018-07-27T05:23:37.831Z,100839.56
2018-07-27T05:26:06.140Z,100838.31
2018-07-27T05:28:34.352Z,100836.75
2018-07-27T05:31:02.588Z,100840.90
2018-07-27T05:33:31.660Z,100829.48
2018-07-27T05:35:59.884Z,100834.00
2018-07-27T05:38:28.129Z,100838.67
2018-07-27T05:40:56.349Z,100833.58
2018-07-27T05:43:24.573Z,100834.50
2018-07-27T05:45:53.237Z,100842.51
2018-07-27T05:48:21.469Z,100849.86
2018-07-27T05:50:49.692Z,100844.75
2018-07-27T05:53:17.968Z,100840.05
2018-07-27T05:55:46.200Z,100834.28
2018-07-27T05:58:14.448Z,100837.11
2018-07-27T06:00:42.652Z,100838.20
2018-07-27T06:03:10.866Z,100834.68
2018-07-27T06:05:39.125Z,100831.88
2018-07-27T06:08:07.384Z,100836.75
2018-07-27T06:10:35.640Z,100838.52
2018-07-27T06:13:03.893Z,100837.52
2018-07-27T06:15:32.104Z,100840.11
2018-07-27T06:18:00.355Z,100839.25
2018-07-27T06:20:28.584Z,100837.59
2018-07-27T06:22:56.835Z,100839.05
2018-07-27T06:25:25.051Z,100841.30
2018-07-27T06:27:53.252Z,100839.64
2018-07-27T06:30:21.476Z,100837.67
2018-07-27T06:32:49.682Z,100832.38
2018-07-27T06:35:17.912Z,100833.69
2018-07-27T06:37:46.129Z,100837.11
2018-07-27T06:40:14.356Z,100838.62
2018-07-27T06:42:42.600Z,100831.45
2018-07-27T06:45:11.328Z,100828.95
2018-07-27T06:47:39.498Z,100828.31
2018-07-27T06:50:07.752Z,100834.73
2018-07-27T06:52:36.042Z,100831.98
2018-07-27T06:55:04.273Z,100835.92
2018-07-27T06:57:32.545Z,100832.06
2018-07-27T07:00:00.748Z,100828.79
2018-07-27T07:02:28.973Z,100829.59
2018-07-27T07:04:57.204Z,100825.48
2018-07-27T07:07:25.455Z,100827.85
2018-07-27T07:09:53.676Z,100825.61
2018-07-27T07:12:21.911Z,100821.44
2018-07-27T07:14:53.080Z,100818.95
2018-07-27T07:17:21.301Z,100820.02
2018-07-27T07:19:49.560Z,100818.32
2018-07-27T07:22:17.765Z,100814.20
2018-07-27T07:24:45.991Z,100819.34
2018-07-27T07:27:14.188Z,100819.14
2018-07-27T07:29:42.760Z,100817.00
2018-07-27T07:32:11.013Z,100814.52
2018-07-27T07:34:39.240Z,100812.07
2018-07-27T07:37:07.517Z,100814.80
2018-07-27T07:39:35.768Z,100812.35
2018-07-27T07:42:04.156Z,100810.83
2018-07-27T07:44:32.384Z,100804.53
2018-07-27T07:47:00.629Z,100803.08
2018-07-27T07:49:28.891Z,100803.55
2018-07-27T07:51:57.040Z,100809.42
2018-07-27T07:54:25.328Z,100801.08
2018-07-27T07:56:53.526Z,100794.20
2018-07-27T07:59:21.749Z,100796.84
2018-07-27T08:01:49.973Z,100793.31
2018-07-27T08:04:18.205Z,100791.06
2018-07-27T08:06:46.391Z,100777.52
2018-07-27T08:09:14.580Z,100788.09
2018-07-27T08:11:42.841Z,100775.75
2018-07-27T08:14:11.029Z,100777.52
2018-07-27T08:16:39.268Z,100776.08
2018-07-27T08:19:07.526Z,100775.40
2018-07-27T08:21:35.740Z,100774.16
2018-07-27T08:24:04.009Z,100776.48
2018-07-27T08:26:37.800Z,100766.84
2018-07-27T08:29:06.297Z,100771.80
2018-07-27T08:31:34.508Z,100770.13
2018-07-27T08:34:02.744Z,100751.57
2018-07-27T08:36:31.452Z,100761.40
2018-07-27T08:38:59.697Z,100762.36
2018-07-27T08:41:27.976Z,100763.55
2018-07-27T08:43:56.225Z,100760.61
2018-07-27T08:46:24.480Z,100762.59
2018-07-27T08:48:52.712Z,100757.77
2018-07-27T08:51:20.908Z,100763.91
2018-07-27T08:53:49.121Z,100758.28
2018-07-27T08:56:17.342Z,100756.47
2018-07-27T08:58:45.701Z,100743.13
2018-07-27T09:01:13.933Z,100748.98
2018-07-27T09:03:42.136Z,100747.69
2018-07-27T09:06:10.349Z,100749.11
2018-07-27T09:08:38.568Z,100738.58
2018-07-27T09:11:06.792Z,100735.31
2018-07-27T09:13:35.005Z,100745.05
2018-07-27T09:16:03.220Z,100735.08
2018-07-27T09:18:31.438Z,100742.25
2018-07-27T09:20:59.668Z,100744.02
2018-07-27T09:23:27.938Z,100741.42
2018-07-27T09:25:56.625Z,100734.13
2018-07-27T09:28:24.824Z,100731.72
2018-07-27T09:30:53.140Z,100737.73
2018-07-27T09:33:21.408Z,100735.43
2018-07-27T09:35:49.744Z,100727.36
2018-07-27T09:38:17.965Z,100733.97
2018-07-27T09:40:46.485Z,100730.54
2018-07-27T09:43:14.704Z,100729.53
2018-07-27T09:45:43.134Z,100732.27
2018-07-27T09:48:11.401Z,100720.93
2018-07-27T09:50:39.812Z,100722.66
2018-07-27T09:53:08.180Z,100720.05
2018-07-27T09:55:36.396Z,100721.70
2018-07-27T09:58:04.673Z,100712.49
2018-07-27T10:00:38.142Z,100716.88
2018-07-27T10:03:06.438Z,100710.20
2018-07-27T10:05:34.671Z,100713.84
2018-07-27T10:08:02.873Z,100707.89
2018-07-27T10:10:31.089Z,100702.85
2018-07-27T10:12:59.381Z,100699.36
2018-07-27T10:15:27.636Z,100698.63
2018-07-27T10:17:55.869Z,100697.38
2018-07-27T10:20:24.084Z,100689.38
2018-07-27T10:22:52.284Z,100692.16
2018-07-27T10:25:20.508Z,100692.27
2018-07-27T10:27:48.749Z,100693.44
2018-07-27T10:30:17.032Z,100689.17
2018-07-27T10:32:45.328Z,100689.75
2018-07-27T10:35:13.565Z,100680.61
2018-07-27T10:37:41.808Z,100687.52
2018-07-27T10:40:10.716Z,100683.27
2018-07-27T10:42:38.949Z,100683.48
2018-07-27T10:45:07.603Z,100684.05
2018-07-27T10:47:36.284Z,100686.26
2018-07-27T10:50:04.996Z,100669.75
2018-07-27T10:52:33.220Z,100670.37
2018-07-27T10:55:01.493Z,100663.86
2018-07-27T10:57:29.740Z,100665.69
2018-07-27T10:59:58.233Z,100659.09
2018-07-27T11:02:26.658Z,100662.52
2018-07-27T11:04:54.848Z,100656.06
2018-07-27T11:07:23.072Z,100662.95
2018-07-27T11:09:51.503Z,100662.19
2018-07-27T11:12:19.673Z,100658.89
2018-07-27T11:14:47.876Z,100651.81
2018-07-27T11:17:16.169Z,100646.30
2018-07-27T11:19:44.300Z,100640.27
2018-07-27T11:22:12.520Z,100644.33
2018-07-27T11:24:40.769Z,100633.83
2018-07-27T11:27:08.985Z,100632.70
2018-07-27T11:29:37.184Z,100625.53
2018-07-27T11:32:05.432Z,100628.55
2018-07-27T11:34:33.649Z,100631.19
2018-07-27T11:37:01.883Z,100631.85
2018-07-27T11:39:30.061Z,100621.16
2018-07-27T11:41:58.273Z,100617.84
2018-07-27T11:44:26.509Z,100618.56
2018-07-27T11:46:54.728Z,100616.52
2018-07-27T11:49:23.032Z,100610.16
2018-07-27T11:51:51.248Z,100599.80
2018-07-27T11:54:19.488Z,100603.68
2018-07-27T11:56:47.708Z,100600.38
2018-07-27T11:59:15.920Z,100600.05
2018-07-27T12:01:44.160Z,100597.11
2018-07-27T12:04:12.345Z,100587.59
2018-07-27T12:06:40.580Z,100588.47
2018-07-27T12:09:10.431Z,100590.53
2018-07-27T12:11:38.656Z,100590.05
2018-07-27T12:14:07.109Z,100585.52
2018-07-27T12:16:35.140Z,100574.77
2018-07-27T12:19:03.580Z,100575.15
2018-07-27T12:21:32.156Z,100571.17
2018-07-27T12:24:00.680Z,100569.24
2018-07-27T12:26:28.882Z,100568.45
2018-07-27T12:28:57.128Z,100560.58
2018-07-27T12:31:25.340Z,100560.47
2018-07-27T12:33:54.020Z,100566.13
2018-07-27T12:36:22.216Z,100560.36
2018-07-27T12:38:50.446Z,100553.45
2018-07-27T12:41:18.679Z,100548.24
2018-07-27T12:43:46.900Z,100549.46
2018-07-27T12:46:15.258Z,100550.20
2018-07-27T12:48:43.449Z,100547.06
2018-07-27T12:51:11.683Z,100541.13
2018-07-27T12:53:39.884Z,100540.27
2018-07-27T12:56:08.088Z,100533.13
2018-07-27T12:58:36.296Z,100530.78
2018-07-27T13:01:04.636Z,100524.67
2018-07-27T13:03:32.877Z,100521.41
2018-07-27T13:06:01.112Z,100517.48
2018-07-27T13:08:29.400Z,100520.48
2018-07-27T13:10:57.637Z,100514.90
2018-07-27T13:13:25.849Z,100522.38
2018-07-27T13:15:54.083Z,100511.87
2018-07-27T13:18:22.361Z,100505.08
2018-07-27T13:20:56.037Z,100499.47
2018-07-27T13:23:24.917Z,100501.45
2018-07-27T13:28:34.248Z,100499.73
2018-07-27T13:31:02.544Z,100486.88
2018-07-27T13:33:31.141Z,100484.42
2018-07-27T13:38:27.978Z,100481.78
2018-07-27T13:40:56.251Z,100473.83
2018-07-27T13:43:24.516Z,100471.63
2018-07-27T13:45:52.773Z,100472.96
2018-07-27T13:48:21.960Z,100465.69
2018-07-27T13:50:50.200Z,100467.16
2018-07-27T13:53:18.428Z,100464.86
2018-07-27T13:55:46.644Z,100456.91
2018-07-27T13:58:14.903Z,100456.62
2018-07-27T14:00:43.116Z,100459.55
2018-07-27T14:03:11.341Z,100457.94
2018-07-27T14:05:39.552Z,100447.41
2018-07-27T14:08:07.832Z,100447.25
2018-07-27T14:10:36.096Z,100438.73
2018-07-27T14:13:04.353Z,100441.16
2018-07-27T14:15:32.697Z,100432.72
2018-07-27T14:18:00.908Z,100429.19
2018-07-27T14:20:29.156Z,100428.88
2018-07-27T14:22:57.342Z,100422.86
2018-07-27T14:25:25.552Z,100426.25
2018-07-27T14:27:53.784Z,100426.97
2018-07-27T14:30:22.018Z,100418.72
2018-07-27T14:32:50.204Z,100418.31
2018-07-27T14:35:18.448Z,100412.98
2018-07-27T14:37:46.773Z,100407.37
2018-07-27T14:40:14.993Z,100402.11
2018-07-27T14:42:43.184Z,100396.84
2018-07-27T14:45:11.412Z,100401.83
2018-07-27T14:47:39.648Z,100402.32
2018-07-27T14:50:07.912Z,100398.73
2018-07-27T14:52:36.185Z,100393.33
2018-07-27T14:55:04.348Z,100386.30
2018-07-27T14:57:32.568Z,100382.31
2018-07-27T15:00:00.784Z,100383.42
2018-07-27T15:02:29.004Z,100385.11
2018-07-27T15:04:57.330Z,100381.64
2018-07-27T15:07:25.505Z,100377.59
2018-07-27T15:09:53.784Z,100371.75
2018-07-27T15:12:22.021Z,100373.13
2018-07-27T15:14:50.244Z,100369.52
2018-07-27T15:17:18.480Z,100370.79
2018-07-27T15:19:46.693Z,100366.36
2018-07-27T15:22:14.897Z,100365.28
2018-07-27T15:24:43.130Z,100366.92
2018-07-27T15:27:11.349Z,100366.44
2018-07-27T15:29:39.565Z,100356.23
2018-07-27T15:32:07.828Z,100352.05
2018-07-27T15:34:36.041Z,100363.72
2018-07-27T15:37:04.292Z,100354.77
2018-07-27T15:39:32.570Z,100358.52
2018-07-27T15:42:00.760Z,100351.34
2018-07-27T15:44:28.996Z,100350.88
2018-07-27T15:46:57.224Z,100344.00
2018-07-27T15:49:25.554Z,100338.42
2018-07-27T15:51:53.753Z,100342.02
2018-07-27T15:54:21.980Z,100329.37
2018-07-27T15:56:50.181Z,100335.33
2018-07-27T15:59:18.393Z,100331.91
2018-07-27T16:01:46.584Z,100331.55
2018-07-27T16:04:14.824Z,100327.66
2018-07-27T16:06:43.036Z,100315.27
2018-07-27T16:09:11.568Z,100311.73
2018-07-27T16:11:39.800Z,100313.31
2018-07-27T16:14:08.084Z,100305.79
2018-07-27T16:16:36.352Z,100316.21
2018-07-27T16:19:04.559Z,100313.41
2018-07-27T16:21:32.765Z,100308.42
2018-07-27T16:24:00.972Z,100298.25
2018-07-27T16:26:29.221Z,100301.30
2018-07-27T16:28:57.857Z,100305.22
2018-07-27T16:31:26.088Z,100298.25
2018-07-27T16:33:54.428Z,100295.81
2018-07-27T16:36:22.648Z,100299.95
2018-07-27T16:38:50.840Z,100295.05
2018-07-27T16:41:19.150Z,100299.65
2018-07-27T16:43:47.379Z,100298.80
2018-07-27T16:46:15.653Z,100291.84
2018-07-27T16:48:43.862Z,100292.47
2018-07-27T16:51:12.064Z,100296.55
2018-07-27T16:53:40.262Z,100293.65
2018-07-27T16:56:08.492Z,100285.99
2018-07-27T16:58:36.700Z,100293.24
2018-07-27T17:01:04.917Z,100286.67
2018-07-27T17:03:33.281Z,100289.59
2018-07-27T17:06:01.525Z,100289.11
2018-07-27T17:08:29.972Z,100282.47
2018-07-27T17:10:58.200Z,100285.94
2018-07-27T17:13:26.418Z,100281.92
2018-07-27T17:15:54.624Z,100282.39
2018-07-27T17:18:22.832Z,100280.89
2018-07-27T17:20:51.072Z,100284.52
2018-07-27T17:23:19.320Z,100281.87
2018-07-27T17:25:47.587Z,100273.48
2018-07-27T17:28:15.770Z,100276.58
2018-07-27T17:30:43.980Z,100273.84
2018-07-27T17:33:12.241Z,100272.77
2018-07-27T17:35:40.444Z,100273.02
2018-07-27T17:38:08.948Z,100268.42
2018-07-27T17:40:37.168Z,100270.11
2018-07-27T17:43:05.606Z,100261.48
2018-07-27T17:45:33.752Z,100261.77
2018-07-27T17:48:02.016Z,100262.08
2018-07-27T17:50:30.320Z,100258.23
2018-07-27T17:52:59.465Z,100253.85
2018-07-27T17:55:27.676Z,100258.05
2018-07-27T17:57:56.536Z,100255.05
2018-07-27T18:00:25.140Z,100255.32
2018-07-27T18:02:53.524Z,100252.26
2018-07-27T18:05:22.132Z,100252.16
2018-07-27T18:07:50.481Z,100248.79
2018-07-27T18:10:18.609Z,100245.59
2018-07-27T18:12:46.865Z,100241.86
2018-07-27T18:15:15.061Z,100245.83
2018-07-27T18:17:43.301Z,100244.50
2018-07-27T18:20:12.482Z,100243.44
2018-07-27T18:22:40.744Z,100242.75
2018-07-27T18:25:12.730Z,100240.63
2018-07-27T18:27:40.900Z,100243.95
2018-07-27T18:30:10.336Z,100242.12
2018-07-27T18:32:38.713Z,100244.63
2018-07-27T18:35:07.532Z,100250.67
2018-07-27T18:37:35.820Z,100235.44
2018-07-27T18:40:04.158Z,100235.47
2018-07-27T18:42:32.428Z,100238.27
2018-07-27T18:45:00.632Z,100235.81
2018-07-27T18:47:28.844Z,100241.36
2018-07-27T18:49:57.048Z,100241.70
2018-07-27T18:52:25.264Z,100240.37
2018-07-27T18:54:53.552Z,100244.53
2018-07-27T18:57:21.808Z,100249.21
2018-07-27T18:59:50.006Z,100247.86
2018-07-27T19:02:18.202Z,100244.60
2018-07-27T19:04:46.422Z,100245.75
2018-07-27T19:07:14.640Z,100238.11
2018-07-27T19:09:42.872Z,100238.98
2018-07-27T19:12:11.119Z,100238.98
2018-07-27T19:14:39.356Z,100239.84
2018-07-27T19:17:07.600Z,100238.17
2018-07-27T19:19:35.820Z,100235.98
2018-07-27T19:22:04.092Z,100238.45
2018-07-27T19:24:32.312Z,100235.17
2018-07-27T19:27:00.635Z,100238.75
2018-07-27T19:29:28.896Z,100242.58
2018-07-27T19:31:57.116Z,100241.48
2018-07-27T19:34:25.420Z,100241.78
2018-07-27T19:36:53.628Z,100239.33
2018-07-27T19:39:21.855Z,100239.87
2018-07-27T19:41:50.100Z,100243.96
2018-07-27T19:44:18.401Z,100240.69
2018-07-27T19:46:46.573Z,100248.62
2018-07-27T19:49:14.854Z,100246.97
2018-07-27T19:51:43.116Z,100243.96
2018-07-27T19:54:11.353Z,100249.14
2018-07-27T19:56:39.589Z,100245.31
2018-07-27T19:59:07.821Z,100252.39
2018-07-27T20:01:36.032Z,100242.59
2018-07-27T20:04:04.301Z,100250.77
2018-07-27T20:06:32.544Z,100247.47
2018-07-27T20:09:00.784Z,100255.66
2018-07-27T20:11:29.048Z,100258.91
2018-07-27T20:13:57.257Z,100255.38
2018-07-27T20:16:25.504Z,100257.50
2018-07-27T20:18:53.792Z,100261.30
2018-07-27T20:21:21.997Z,100259.11
2018-07-27T20:23:50.228Z,100255.28
2018-07-27T20:26:18.500Z,100260.44
2018-07-27T20:28:46.709Z,100263.16
2018-07-27T20:31:14.934Z,100261.53
2018-07-27T20:33:43.148Z,100261.50
2018-07-27T20:36:11.353Z,100262.84
2018-07-27T20:38:39.574Z,100259.58
2018-07-27T20:41:07.977Z,100258.45
2018-07-27T20:43:36.196Z,100260.08
2018-07-27T20:46:04.453Z,100263.33
2018-07-27T20:48:32.748Z,100265.22
2018-07-27T20:51:00.903Z,100264.64
2018-07-27T20:53:29.141Z,100261.34
2018-07-27T20:55:57.378Z,100263.23
2018-07-27T20:58:25.605Z,100261.86
2018-07-27T21:00:53.828Z,100258.55
2018-07-27T21:03:22.033Z,100263.14
2018-07-27T21:05:50.240Z,100260.10
2018-07-27T21:08:18.449Z,100260.06
2018-07-27T21:10:46.680Z,100254.61
2018-07-27T21:13:14.900Z,100256.20
2018-07-27T21:15:43.128Z,100251.80
2018-07-27T21:18:11.333Z,100250.94
2018-07-27T21:20:39.544Z,100259.07
2018-07-27T21:23:08.081Z,100257.43
2018-07-27T21:25:36.296Z,100265.03
2018-07-27T21:28:04.572Z,100266.36
2018-07-27T21:30:32.800Z,100264.70
2018-07-27T21:33:01.013Z,100274.48
2018-07-27T21:35:29.273Z,100268.20
2018-07-27T21:37:57.505Z,100267.61
2018-07-27T21:40:25.721Z,100266.78
2018-07-27T21:42:53.932Z,100268.69
2018-07-27T21:45:22.169Z,100270.02
2018-07-27T21:47:50.397Z,100271.37
2018-07-27T21:50:18.664Z,100270.25
2018-07-27T21:52:46.880Z,100263.14
2018-07-27T21:55:15.104Z,100258.50
2018-07-27T21:57:43.394Z,100255.22
2018-07-27T22:00:11.697Z,100251.14
2018-07-27T22:02:39.944Z,100248.39
2018-07-27T22:05:08.273Z,100250.03
2018-07-27T22:07:36.868Z,100248.67
2018-07-27T22:10:05.391Z,100250.29
2018-07-27T22:12:33.644Z,100249.19
2018-07-27T22:15:01.857Z,100247.55
2018-07-27T22:17:30.102Z,100243.44
2018-07-27T22:19:58.332Z,100239.62
2018-07-27T22:22:26.539Z,100237.44
2018-07-27T22:24:54.754Z,100239.02
2018-07-27T22:27:22.977Z,100240.06
2018-07-27T22:29:51.217Z,100236.53
2018-07-27T22:32:19.520Z,100233.78
2018-07-27T22:34:47.668Z,100233.78
2018-07-27T22:37:15.922Z,100230.50
2018-07-27T22:39:44.121Z,100234.80
2018-07-27T22:42:12.344Z,100235.59
2018-07-27T22:44:40.576Z,100234.48
2018-07-27T22:47:08.812Z,100238.00
2018-07-27T22:49:37.034Z,100232.53
2018-07-27T22:52:05.280Z,100232.78
2018-07-27T22:54:33.564Z,100228.68
2018-07-27T22:57:01.772Z,100227.58
2018-07-27T22:59:29.988Z,100224.58
2018-07-27T23:01:58.208Z,100226.72
2018-07-27T23:04:26.440Z,100224.26
2018-07-27T23:06:54.660Z,100220.19
2018-07-27T23:09:22.870Z,100220.16
2018-07-27T23:11:51.089Z,100220.94
2018-07-27T23:14:19.293Z,100221.20
2018-07-27T23:16:47.576Z,100217.38
2018-07-27T23:19:15.796Z,100222.02
2018-07-27T23:21:44.025Z,100218.77
2018-07-27T23:24:12.361Z,100217.94
2018-07-27T23:26:40.647Z,100217.91
2018-07-27T23:29:08.880Z,100217.63
2018-07-27T23:31:37.133Z,100215.70
2018-07-27T23:34:05.440Z,100206.44
2018-07-27T23:36:33.684Z,100207.52
2018-07-27T23:39:01.997Z,100200.16
2018-07-27T23:41:30.220Z,100199.56
2018-07-27T23:43:58.438Z,100201.98
2018-07-27T23:46:26.645Z,100196.02
2018-07-27T23:48:54.904Z,100189.48
2018-07-27T23:51:23.136Z,100190.27
2018-07-27T23:53:51.384Z,100195.13
2018-07-27T23:56:19.740Z,100191.88
2018-07-27T23:58:47.988Z,100188.34
